sensor_id;sensor_type;location;lat;lon;timestamp;temperature;humidity
54960;DHT22;40860;51.710;8.736;2023-02-28T00:00:49;-0.20;94.40
54960;DHT22;40860;51.710;8.736;2023-02-28T00:04:54;-0.20;94.30
54960;DHT22;40860;51.710;8.736;2023-02-28T00:09:02;-0.10;94.10
54960;DHT22;40860;51.710;8.736;2023-02-28T00:13:07;-0.10;94.20
54960;DHT22;40860;51.710;8.736;2023-02-28T00:17:10;-0.10;94.50
54960;DHT22;40860;51.710;8.736;2023-02-28T00:21:15;-0.20;94.80
54960;DHT22;40860;51.710;8.736;2023-02-28T00:25:20;-0.10;94.60
54960;DHT22;40860;51.710;8.736;2023-02-28T00:29:24;-0.10;94.50
54960;DHT22;40860;51.710;8.736;2023-02-28T00:33:27;-0.10;94.20
54960;DHT22;40860;51.710;8.736;2023-02-28T00:37:31;-0.10;94.10
54960;DHT22;40860;51.710;8.736;2023-02-28T00:41:34;-0.10;94.20
54960;DHT22;40860;51.710;8.736;2023-02-28T00:45:40;-0.10;94.30
54960;DHT22;40860;51.710;8.736;2023-02-28T00:49:42;-0.20;94.40
54960;DHT22;40860;51.710;8.736;2023-02-28T00:53:47;-0.30;94.40
54960;DHT22;40860;51.710;8.736;2023-02-28T00:57:51;-0.40;94.70
54960;DHT22;40860;51.710;8.736;2023-02-28T01:01:53;-0.50;94.70
54960;DHT22;40860;51.710;8.736;2023-02-28T01:05:57;-0.60;94.80
54960;DHT22;40860;51.710;8.736;2023-02-28T01:10:01;-0.60;94.80
54960;DHT22;40860;51.710;8.736;2023-02-28T01:14:04;-0.60;95.00
54960;DHT22;40860;51.710;8.736;2023-02-28T01:18:07;-0.80;95.10
54960;DHT22;40860;51.710;8.736;2023-02-28T01:22:09;-0.90;95.20
54960;DHT22;40860;51.710;8.736;2023-02-28T01:26:15;-0.90;95.40
54960;DHT22;40860;51.710;8.736;2023-02-28T01:30:19;-0.90;95.50
54960;DHT22;40860;51.710;8.736;2023-02-28T01:34:21;-1.00;95.50
54960;DHT22;40860;51.710;8.736;2023-02-28T01:38:25;-1.00;95.40
54960;DHT22;40860;51.710;8.736;2023-02-28T01:42:29;-1.10;95.50
54960;DHT22;40860;51.710;8.736;2023-02-28T01:46:34;-1.10;95.60
54960;DHT22;40860;51.710;8.736;2023-02-28T01:50:41;-1.20;95.80
54960;DHT22;40860;51.710;8.736;2023-02-28T01:54:46;-1.20;95.80
54960;DHT22;40860;51.710;8.736;2023-02-28T01:58:54;-1.20;95.70
54960;DHT22;40860;51.710;8.736;2023-02-28T02:02:59;-1.20;95.70
54960;DHT22;40860;51.710;8.736;2023-02-28T02:07:04;-1.20;95.70
54960;DHT22;40860;51.710;8.736;2023-02-28T02:11:10;-1.30;95.60
54960;DHT22;40860;51.710;8.736;2023-02-28T02:15:18;-1.30;95.50
54960;DHT22;40860;51.710;8.736;2023-02-28T02:19:49;-1.40;95.60
54960;DHT22;40860;51.710;8.736;2023-02-28T02:24:09;-1.40;95.60
54960;DHT22;40860;51.710;8.736;2023-02-28T02:33:05;-1.60;95.80
54960;DHT22;40860;51.710;8.736;2023-02-28T02:37:16;-1.70;96.20
54960;DHT22;40860;51.710;8.736;2023-02-28T02:41:25;-1.70;96.40
54960;DHT22;40860;51.710;8.736;2023-02-28T02:45:33;-1.70;96.30
54960;DHT22;40860;51.710;8.736;2023-02-28T02:49:39;-1.80;96.50
54960;DHT22;40860;51.710;8.736;2023-02-28T02:53:48;-1.80;96.80
54960;DHT22;40860;51.710;8.736;2023-02-28T02:57:55;-1.80;96.80
54960;DHT22;40860;51.710;8.736;2023-02-28T03:02:03;-1.80;97.10
54960;DHT22;40860;51.710;8.736;2023-02-28T03:06:07;-1.70;97.40
54960;DHT22;40860;51.710;8.736;2023-02-28T03:10:33;-1.70;97.50
54960;DHT22;40860;51.710;8.736;2023-02-28T03:14:51;-1.70;97.50
54960;DHT22;40860;51.710;8.736;2023-02-28T03:19:12;-1.60;97.50
54960;DHT22;40860;51.710;8.736;2023-02-28T03:23:21;-1.70;97.40
54960;DHT22;40860;51.710;8.736;2023-02-28T03:27:29;-1.80;97.30
54960;DHT22;40860;51.710;8.736;2023-02-28T03:31:37;-1.80;97.40
54960;DHT22;40860;51.710;8.736;2023-02-28T03:35:43;-1.80;97.60
54960;DHT22;40860;51.710;8.736;2023-02-28T03:39:54;-1.80;97.50
54960;DHT22;40860;51.710;8.736;2023-02-28T03:44:02;-1.90;97.20
54960;DHT22;40860;51.710;8.736;2023-02-28T03:48:09;-2.00;97.30
54960;DHT22;40860;51.710;8.736;2023-02-28T03:52:17;-2.10;97.50
54960;DHT22;40860;51.710;8.736;2023-02-28T03:56:25;-2.10;97.60
54960;DHT22;40860;51.710;8.736;2023-02-28T04:00:35;-2.20;97.60
54960;DHT22;40860;51.710;8.736;2023-02-28T04:04:39;-2.20;97.60
54960;DHT22;40860;51.710;8.736;2023-02-28T04:08:50;-2.20;97.60
54960;DHT22;40860;51.710;8.736;2023-02-28T04:12:52;-2.20;97.50
54960;DHT22;40860;51.710;8.736;2023-02-28T04:16:56;-2.30;97.50
54960;DHT22;40860;51.710;8.736;2023-02-28T04:21:00;-2.30;97.50
54960;DHT22;40860;51.710;8.736;2023-02-28T04:25:04;-2.40;97.80
54960;DHT22;40860;51.710;8.736;2023-02-28T04:29:07;-2.40;97.70
54960;DHT22;40860;51.710;8.736;2023-02-28T04:33:11;-2.40;97.50
54960;DHT22;40860;51.710;8.736;2023-02-28T04:37:14;-2.40;97.90
54960;DHT22;40860;51.710;8.736;2023-02-28T04:41:17;-2.40;97.80
54960;DHT22;40860;51.710;8.736;2023-02-28T04:45:19;-2.40;97.90
54960;DHT22;40860;51.710;8.736;2023-02-28T04:49:24;-2.30;97.80
54960;DHT22;40860;51.710;8.736;2023-02-28T04:53:27;-2.40;97.60
54960;DHT22;40860;51.710;8.736;2023-02-28T04:57:30;-2.40;97.70
54960;DHT22;40860;51.710;8.736;2023-02-28T05:01:34;-2.50;97.90
54960;DHT22;40860;51.710;8.736;2023-02-28T05:05:39;-2.40;98.30
54960;DHT22;40860;51.710;8.736;2023-02-28T05:09:42;-2.40;98.30
54960;DHT22;40860;51.710;8.736;2023-02-28T05:13:45;-2.40;98.20
54960;DHT22;40860;51.710;8.736;2023-02-28T05:17:48;-2.30;98.60
54960;DHT22;40860;51.710;8.736;2023-02-28T05:21:54;-2.30;98.50
54960;DHT22;40860;51.710;8.736;2023-02-28T05:25:57;-2.20;98.50
54960;DHT22;40860;51.710;8.736;2023-02-28T05:29:59;-2.10;98.30
54960;DHT22;40860;51.710;8.736;2023-02-28T05:34:05;-2.00;98.20
54960;DHT22;40860;51.710;8.736;2023-02-28T05:38:09;-2.00;98.00
54960;DHT22;40860;51.710;8.736;2023-02-28T05:42:12;-1.90;98.00
54960;DHT22;40860;51.710;8.736;2023-02-28T05:46:15;-1.80;97.60
54960;DHT22;40860;51.710;8.736;2023-02-28T05:50:18;-1.70;97.20
54960;DHT22;40860;51.710;8.736;2023-02-28T05:54:22;-1.70;97.10
54960;DHT22;40860;51.710;8.736;2023-02-28T05:58:26;-1.80;97.30
54960;DHT22;40860;51.710;8.736;2023-02-28T06:02:32;-1.80;97.30
54960;DHT22;40860;51.710;8.736;2023-02-28T06:06:37;-1.80;97.10
54960;DHT22;40860;51.710;8.736;2023-02-28T06:10:42;-1.80;96.80
54960;DHT22;40860;51.710;8.736;2023-02-28T06:14:46;-1.70;96.50
54960;DHT22;40860;51.710;8.736;2023-02-28T06:18:49;-1.60;96.20
54960;DHT22;40860;51.710;8.736;2023-02-28T06:22:52;-1.60;96.00
54960;DHT22;40860;51.710;8.736;2023-02-28T06:26:57;-1.70;96.00
54960;DHT22;40860;51.710;8.736;2023-02-28T06:31:06;-1.90;96.40
54960;DHT22;40860;51.710;8.736;2023-02-28T06:35:09;-2.00;96.40
54960;DHT22;40860;51.710;8.736;2023-02-28T06:39:12;-2.10;96.60
54960;DHT22;40860;51.710;8.736;2023-02-28T06:43:16;-2.20;96.70
54960;DHT22;40860;51.710;8.736;2023-02-28T06:47:19;-2.20;97.00
54960;DHT22;40860;51.710;8.736;2023-02-28T06:51:23;-2.00;97.00
54960;DHT22;40860;51.710;8.736;2023-02-28T06:55:26;-1.80;96.80
54960;DHT22;40860;51.710;8.736;2023-02-28T06:59:32;-1.70;96.40
54960;DHT22;40860;51.710;8.736;2023-02-28T07:03:36;-1.60;96.10
54960;DHT22;40860;51.710;8.736;2023-02-28T07:07:39;-1.60;96.00
54960;DHT22;40860;51.710;8.736;2023-02-28T07:11:45;-1.50;95.70
54960;DHT22;40860;51.710;8.736;2023-02-28T07:15:55;-1.50;95.70
54960;DHT22;40860;51.710;8.736;2023-02-28T07:19:58;-1.40;95.60
54960;DHT22;40860;51.710;8.736;2023-02-28T07:24:01;-1.20;94.60
54960;DHT22;40860;51.710;8.736;2023-02-28T07:36:14;-0.60;93.10
54960;DHT22;40860;51.710;8.736;2023-02-28T07:40:17;-0.40;92.90
54960;DHT22;40860;51.710;8.736;2023-02-28T07:44:20;-0.30;91.90
54960;DHT22;40860;51.710;8.736;2023-02-28T07:48:29;-0.20;91.50
54960;DHT22;40860;51.710;8.736;2023-02-28T07:52:32;-0.20;91.00
54960;DHT22;40860;51.710;8.736;2023-02-28T07:56:35;-0.10;90.80
54960;DHT22;40860;51.710;8.736;2023-02-28T08:00:38;0.00;91.00
54960;DHT22;40860;51.710;8.736;2023-02-28T08:04:43;0.10;90.70
54960;DHT22;40860;51.710;8.736;2023-02-28T08:08:46;0.20;90.40
54960;DHT22;40860;51.710;8.736;2023-02-28T08:12:49;0.40;90.50
54960;DHT22;40860;51.710;8.736;2023-02-28T08:16:52;0.50;90.00
54960;DHT22;40860;51.710;8.736;2023-02-28T08:20:57;0.70;90.00
54960;DHT22;40860;51.710;8.736;2023-02-28T08:25:00;0.80;89.10
54960;DHT22;40860;51.710;8.736;2023-02-28T08:29:03;0.90;88.70
54960;DHT22;40860;51.710;8.736;2023-02-28T08:33:06;1.00;87.90
54960;DHT22;40860;51.710;8.736;2023-02-28T08:37:17;1.10;88.00
54960;DHT22;40860;51.710;8.736;2023-02-28T08:41:20;1.30;87.90
54960;DHT22;40860;51.710;8.736;2023-02-28T08:45:23;1.60;87.80
54960;DHT22;40860;51.710;8.736;2023-02-28T08:49:26;1.80;86.90
54960;DHT22;40860;51.710;8.736;2023-02-28T08:53:30;1.90;85.10
54960;DHT22;40860;51.710;8.736;2023-02-28T08:57:33;2.00;84.40
54960;DHT22;40860;51.710;8.736;2023-02-28T09:01:36;2.20;84.60
54960;DHT22;40860;51.710;8.736;2023-02-28T09:05:39;2.70;85.00
54960;DHT22;40860;51.710;8.736;2023-02-28T09:09:44;3.20;83.40
54960;DHT22;40860;51.710;8.736;2023-02-28T09:13:56;3.60;81.30
54960;DHT22;40860;51.710;8.736;2023-02-28T09:18:00;3.80;79.00
54960;DHT22;40860;51.710;8.736;2023-02-28T09:22:03;4.30;77.50
54960;DHT22;40860;51.710;8.736;2023-02-28T09:26:08;4.80;76.70
54960;DHT22;40860;51.710;8.736;2023-02-28T09:30:15;5.00;72.60
54960;DHT22;40860;51.710;8.736;2023-02-28T09:34:18;4.90;70.10
54960;DHT22;40860;51.710;8.736;2023-02-28T09:38:21;5.10;70.30
54960;DHT22;40860;51.710;8.736;2023-02-28T09:42:31;5.20;70.30
54960;DHT22;40860;51.710;8.736;2023-02-28T09:46:38;5.20;68.30
54960;DHT22;40860;51.710;8.736;2023-02-28T09:50:46;5.30;67.90
54960;DHT22;40860;51.710;8.736;2023-02-28T09:54:50;5.70;67.40
54960;DHT22;40860;51.710;8.736;2023-02-28T09:58:57;5.90;65.40
54960;DHT22;40860;51.710;8.736;2023-02-28T10:03:13;5.60;64.40
54960;DHT22;40860;51.710;8.736;2023-02-28T10:07:26;5.30;64.90
54960;DHT22;40860;51.710;8.736;2023-02-28T10:11:33;5.10;66.50
54960;DHT22;40860;51.710;8.736;2023-02-28T10:15:38;5.40;65.80
54960;DHT22;40860;51.710;8.736;2023-02-28T10:19:46;5.50;66.10
54960;DHT22;40860;51.710;8.736;2023-02-28T10:23:58;5.60;65.10
54960;DHT22;40860;51.710;8.736;2023-02-28T10:28:10;5.30;65.20
54960;DHT22;40860;51.710;8.736;2023-02-28T10:32:16;5.10;64.40
54960;DHT22;40860;51.710;8.736;2023-02-28T10:36:21;4.90;65.30
54960;DHT22;40860;51.710;8.736;2023-02-28T10:40:30;4.70;63.40
54960;DHT22;40860;51.710;8.736;2023-02-28T10:44:33;4.60;65.10
54960;DHT22;40860;51.710;8.736;2023-02-28T10:48:39;4.80;65.40
54960;DHT22;40860;51.710;8.736;2023-02-28T10:52:44;4.80;64.90
54960;DHT22;40860;51.710;8.736;2023-02-28T10:57:06;4.60;65.60
54960;DHT22;40860;51.710;8.736;2023-02-28T11:01:14;4.80;65.10
54960;DHT22;40860;51.710;8.736;2023-02-28T11:05:29;4.70;66.90
54960;DHT22;40860;51.710;8.736;2023-02-28T11:09:34;4.70;67.30
54960;DHT22;40860;51.710;8.736;2023-02-28T11:13:37;4.70;67.10
54960;DHT22;40860;51.710;8.736;2023-02-28T11:17:42;4.70;67.00
54960;DHT22;40860;51.710;8.736;2023-02-28T11:21:53;4.70;67.30
54960;DHT22;40860;51.710;8.736;2023-02-28T11:26:01;4.70;65.70
54960;DHT22;40860;51.710;8.736;2023-02-28T11:30:24;4.60;66.50
54960;DHT22;40860;51.710;8.736;2023-02-28T11:34:28;4.60;66.30
54960;DHT22;40860;51.710;8.736;2023-02-28T11:38:34;4.70;65.90
54960;DHT22;40860;51.710;8.736;2023-02-28T11:42:53;4.70;66.00
54960;DHT22;40860;51.710;8.736;2023-02-28T11:47:02;4.60;66.50
54960;DHT22;40860;51.710;8.736;2023-02-28T11:51:13;4.70;67.50
54960;DHT22;40860;51.710;8.736;2023-02-28T12:10:28;4.80;66.30
54960;DHT22;40860;51.710;8.736;2023-02-28T12:14:47;5.10;66.30
54960;DHT22;40860;51.710;8.736;2023-02-28T12:19:10;5.30;66.60
54960;DHT22;40860;51.710;8.736;2023-02-28T12:23:25;5.40;65.50
54960;DHT22;40860;51.710;8.736;2023-02-28T12:27:37;5.30;64.50
54960;DHT22;40860;51.710;8.736;2023-02-28T12:31:46;5.10;65.10
54960;DHT22;40860;51.710;8.736;2023-02-28T12:35:56;5.40;66.20
54960;DHT22;40860;51.710;8.736;2023-02-28T12:40:02;5.40;65.20
54960;DHT22;40860;51.710;8.736;2023-02-28T12:44:13;5.50;66.20
54960;DHT22;40860;51.710;8.736;2023-02-28T12:48:21;5.50;65.80
54960;DHT22;40860;51.710;8.736;2023-02-28T12:52:46;5.40;66.10
54960;DHT22;40860;51.710;8.736;2023-02-28T12:56:56;5.60;67.00
54960;DHT22;40860;51.710;8.736;2023-02-28T13:01:29;5.80;66.30
54960;DHT22;40860;51.710;8.736;2023-02-28T13:05:56;5.80;63.90
54960;DHT22;40860;51.710;8.736;2023-02-28T13:10:08;5.80;63.30
54960;DHT22;40860;51.710;8.736;2023-02-28T13:14:24;5.70;63.30
54960;DHT22;40860;51.710;8.736;2023-02-28T13:18:35;5.60;63.40
54960;DHT22;40860;51.710;8.736;2023-02-28T13:22:40;5.60;63.00
54960;DHT22;40860;51.710;8.736;2023-02-28T13:36:23;5.80;62.10
54960;DHT22;40860;51.710;8.736;2023-02-28T13:40:31;5.70;62.00
54960;DHT22;40860;51.710;8.736;2023-02-28T13:49:19;5.80;60.10
54960;DHT22;40860;51.710;8.736;2023-02-28T13:53:42;5.80;59.70
54960;DHT22;40860;51.710;8.736;2023-02-28T13:58:04;5.90;59.70
54960;DHT22;40860;51.710;8.736;2023-02-28T14:02:30;5.90;59.70
54960;DHT22;40860;51.710;8.736;2023-02-28T14:06:36;5.90;59.70
54960;DHT22;40860;51.710;8.736;2023-02-28T14:10:48;5.80;59.60
54960;DHT22;40860;51.710;8.736;2023-02-28T14:14:55;5.90;58.70
54960;DHT22;40860;51.710;8.736;2023-02-28T14:19:03;6.00;58.90
54960;DHT22;40860;51.710;8.736;2023-02-28T14:23:19;6.00;58.90
54960;DHT22;40860;51.710;8.736;2023-02-28T14:27:32;6.00;58.80
54960;DHT22;40860;51.710;8.736;2023-02-28T14:31:43;6.00;58.10
54960;DHT22;40860;51.710;8.736;2023-02-28T14:35:57;6.00;58.70
54960;DHT22;40860;51.710;8.736;2023-02-28T14:40:12;6.10;58.40
54960;DHT22;40860;51.710;8.736;2023-02-28T14:44:25;6.00;58.40
54960;DHT22;40860;51.710;8.736;2023-02-28T14:48:30;6.00;58.20
54960;DHT22;40860;51.710;8.736;2023-02-28T14:52:36;6.00;58.10
54960;DHT22;40860;51.710;8.736;2023-02-28T14:56:40;6.00;58.50
54960;DHT22;40860;51.710;8.736;2023-02-28T15:00:49;6.00;58.60
54960;DHT22;40860;51.710;8.736;2023-02-28T15:04:55;5.90;58.60
54960;DHT22;40860;51.710;8.736;2023-02-28T15:09:10;5.90;58.70
54960;DHT22;40860;51.710;8.736;2023-02-28T15:13:14;6.10;59.30
54960;DHT22;40860;51.710;8.736;2023-02-28T15:17:23;6.10;58.70
54960;DHT22;40860;51.710;8.736;2023-02-28T15:21:30;6.00;58.10
54960;DHT22;40860;51.710;8.736;2023-02-28T15:25:34;5.90;58.60
54960;DHT22;40860;51.710;8.736;2023-02-28T15:29:43;5.90;58.90
54960;DHT22;40860;51.710;8.736;2023-02-28T15:33:54;6.00;58.80
54960;DHT22;40860;51.710;8.736;2023-02-28T15:38:00;6.30;58.60
54960;DHT22;40860;51.710;8.736;2023-02-28T15:42:10;6.60;57.50
54960;DHT22;40860;51.710;8.736;2023-02-28T15:46:14;6.70;57.00
54960;DHT22;40860;51.710;8.736;2023-02-28T15:50:21;6.90;57.00
54960;DHT22;40860;51.710;8.736;2023-02-28T15:54:28;6.80;55.90
54960;DHT22;40860;51.710;8.736;2023-02-28T15:58:32;6.80;56.90
54960;DHT22;40860;51.710;8.736;2023-02-28T16:02:36;6.90;56.30
54960;DHT22;40860;51.710;8.736;2023-02-28T16:06:41;6.90;56.40
54960;DHT22;40860;51.710;8.736;2023-02-28T16:10:44;7.00;56.30
54960;DHT22;40860;51.710;8.736;2023-02-28T16:14:49;7.20;54.70
54960;DHT22;40860;51.710;8.736;2023-02-28T16:18:58;6.90;54.40
54960;DHT22;40860;51.710;8.736;2023-02-28T16:23:02;6.40;54.90
54960;DHT22;40860;51.710;8.736;2023-02-28T16:27:06;6.10;55.50
54960;DHT22;40860;51.710;8.736;2023-02-28T16:31:13;5.90;56.10
54960;DHT22;40860;51.710;8.736;2023-02-28T16:35:18;5.70;56.80
54960;DHT22;40860;51.710;8.736;2023-02-28T16:39:23;5.50;56.80
54960;DHT22;40860;51.710;8.736;2023-02-28T16:43:26;5.30;57.40
54960;DHT22;40860;51.710;8.736;2023-02-28T16:47:29;5.20;58.00
54960;DHT22;40860;51.710;8.736;2023-02-28T16:51:34;5.00;58.20
54960;DHT22;40860;51.710;8.736;2023-02-28T16:55:42;4.90;58.70
54960;DHT22;40860;51.710;8.736;2023-02-28T16:59:46;4.80;59.50
54960;DHT22;40860;51.710;8.736;2023-02-28T17:03:49;4.70;59.30
54960;DHT22;40860;51.710;8.736;2023-02-28T17:07:52;4.60;59.60
54960;DHT22;40860;51.710;8.736;2023-02-28T17:11:56;4.50;60.10
54960;DHT22;40860;51.710;8.736;2023-02-28T17:16:01;4.40;60.90
54960;DHT22;40860;51.710;8.736;2023-02-28T17:20:06;4.30;61.80
54960;DHT22;40860;51.710;8.736;2023-02-28T17:24:10;4.20;62.90
54960;DHT22;40860;51.710;8.736;2023-02-28T17:28:21;4.10;63.10
54960;DHT22;40860;51.710;8.736;2023-02-28T17:32:24;4.00;63.70
54960;DHT22;40860;51.710;8.736;2023-02-28T17:36:27;3.90;64.50
54960;DHT22;40860;51.710;8.736;2023-02-28T17:40:31;3.80;65.30
54960;DHT22;40860;51.710;8.736;2023-02-28T17:44:36;3.70;65.70
54960;DHT22;40860;51.710;8.736;2023-02-28T17:48:40;3.60;66.50
54960;DHT22;40860;51.710;8.736;2023-02-28T17:52:42;3.60;66.90
54960;DHT22;40860;51.710;8.736;2023-02-28T17:56:45;3.50;67.30
54960;DHT22;40860;51.710;8.736;2023-02-28T18:00:50;3.40;67.30
54960;DHT22;40860;51.710;8.736;2023-02-28T18:04:56;3.30;67.90
54960;DHT22;40860;51.710;8.736;2023-02-28T18:08:59;3.30;68.60
54960;DHT22;40860;51.710;8.736;2023-02-28T18:13:02;3.20;69.10
54960;DHT22;40860;51.710;8.736;2023-02-28T18:17:06;3.10;69.50
54960;DHT22;40860;51.710;8.736;2023-02-28T18:21:11;3.00;69.90
54960;DHT22;40860;51.710;8.736;2023-02-28T18:25:14;3.00;70.20
54960;DHT22;40860;51.710;8.736;2023-02-28T18:29:21;2.90;70.60
54960;DHT22;40860;51.710;8.736;2023-02-28T18:33:25;2.80;70.70
54960;DHT22;40860;51.710;8.736;2023-02-28T18:37:28;2.80;71.00
54960;DHT22;40860;51.710;8.736;2023-02-28T18:41:31;2.70;71.30
54960;DHT22;40860;51.710;8.736;2023-02-28T18:45:35;2.70;71.60
54960;DHT22;40860;51.710;8.736;2023-02-28T18:49:41;2.60;72.00
54960;DHT22;40860;51.710;8.736;2023-02-28T18:53:44;2.60;72.20
54960;DHT22;40860;51.710;8.736;2023-02-28T18:57:47;2.50;72.50
54960;DHT22;40860;51.710;8.736;2023-02-28T19:01:50;2.40;72.90
54960;DHT22;40860;51.710;8.736;2023-02-28T19:05:55;2.30;73.30
54960;DHT22;40860;51.710;8.736;2023-02-28T19:09:58;2.20;73.80
54960;DHT22;40860;51.710;8.736;2023-02-28T19:14:01;2.10;74.50
54960;DHT22;40860;51.710;8.736;2023-02-28T19:18:04;1.90;75.10
54960;DHT22;40860;51.710;8.736;2023-02-28T19:22:08;1.80;76.00
54960;DHT22;40860;51.710;8.736;2023-02-28T19:26:14;1.60;76.80
54960;DHT22;40860;51.710;8.736;2023-02-28T19:30:17;1.50;78.20
54960;DHT22;40860;51.710;8.736;2023-02-28T19:34:27;1.30;78.90
54960;DHT22;40860;51.710;8.736;2023-02-28T19:38:31;1.20;79.70
54960;DHT22;40860;51.710;8.736;2023-02-28T19:42:34;1.10;80.60
54960;DHT22;40860;51.710;8.736;2023-02-28T19:46:37;1.00;81.60
54960;DHT22;40860;51.710;8.736;2023-02-28T19:50:40;0.90;82.50
54960;DHT22;40860;51.710;8.736;2023-02-28T19:54:45;0.90;83.00
54960;DHT22;40860;51.710;8.736;2023-02-28T19:58:48;0.80;83.30
54960;DHT22;40860;51.710;8.736;2023-02-28T20:02:51;0.70;84.80
54960;DHT22;40860;51.710;8.736;2023-02-28T20:06:54;0.60;85.10
54960;DHT22;40860;51.710;8.736;2023-02-28T20:11:03;0.60;85.60
54960;DHT22;40860;51.710;8.736;2023-02-28T20:15:08;0.70;85.80
54960;DHT22;40860;51.710;8.736;2023-02-28T20:19:12;0.70;85.70
54960;DHT22;40860;51.710;8.736;2023-02-28T20:23:15;0.60;85.60
54960;DHT22;40860;51.710;8.736;2023-02-28T20:27:19;0.50;86.00
54960;DHT22;40860;51.710;8.736;2023-02-28T20:31:24;0.50;86.40
54960;DHT22;40860;51.710;8.736;2023-02-28T20:35:27;0.40;87.30
54960;DHT22;40860;51.710;8.736;2023-02-28T20:39:29;0.30;87.20
54960;DHT22;40860;51.710;8.736;2023-02-28T20:43:34;0.30;87.90
54960;DHT22;40860;51.710;8.736;2023-02-28T20:47:37;0.20;88.30
54960;DHT22;40860;51.710;8.736;2023-02-28T20:51:40;0.20;88.90
54960;DHT22;40860;51.710;8.736;2023-02-28T20:55:52;0.30;89.00
54960;DHT22;40860;51.710;8.736;2023-02-28T20:59:58;0.40;89.10
54960;DHT22;40860;51.710;8.736;2023-02-28T21:04:05;0.50;88.90
54960;DHT22;40860;51.710;8.736;2023-02-28T21:08:08;0.50;88.40
54960;DHT22;40860;51.710;8.736;2023-02-28T21:12:11;0.60;88.30
54960;DHT22;40860;51.710;8.736;2023-02-28T21:16:17;0.60;88.30
54960;DHT22;40860;51.710;8.736;2023-02-28T21:20:22;0.60;88.60
54960;DHT22;40860;51.710;8.736;2023-02-28T21:24:24;0.70;88.80
54960;DHT22;40860;51.710;8.736;2023-02-28T21:28:37;0.70;89.30
54960;DHT22;40860;51.710;8.736;2023-02-28T21:32:46;0.70;88.50
54960;DHT22;40860;51.710;8.736;2023-02-28T21:36:50;0.70;88.40
54960;DHT22;40860;51.710;8.736;2023-02-28T21:40:53;0.70;88.50
54960;DHT22;40860;51.710;8.736;2023-02-28T21:44:57;0.70;88.60
54960;DHT22;40860;51.710;8.736;2023-02-28T21:49:03;0.60;88.60
54960;DHT22;40860;51.710;8.736;2023-02-28T21:53:06;0.50;88.90
54960;DHT22;40860;51.710;8.736;2023-02-28T21:57:10;0.40;89.10
54960;DHT22;40860;51.710;8.736;2023-02-28T22:01:16;0.40;89.50
54960;DHT22;40860;51.710;8.736;2023-02-28T22:05:21;0.20;90.00
54960;DHT22;40860;51.710;8.736;2023-02-28T22:09:26;0.20;90.40
54960;DHT22;40860;51.710;8.736;2023-02-28T22:13:29;0.10;90.40
54960;DHT22;40860;51.710;8.736;2023-02-28T22:17:32;0.10;90.60
54960;DHT22;40860;51.710;8.736;2023-02-28T22:21:38;0.10;90.60
54960;DHT22;40860;51.710;8.736;2023-02-28T22:25:42;0.10;90.70
54960;DHT22;40860;51.710;8.736;2023-02-28T22:29:47;0.20;90.50
54960;DHT22;40860;51.710;8.736;2023-02-28T22:33:51;0.20;90.40
54960;DHT22;40860;51.710;8.736;2023-02-28T22:38:00;0.20;90.50
54960;DHT22;40860;51.710;8.736;2023-02-28T22:42:03;0.20;90.40
54960;DHT22;40860;51.710;8.736;2023-02-28T22:46:08;0.10;90.50
54960;DHT22;40860;51.710;8.736;2023-02-28T22:50:11;0.10;90.60
54960;DHT22;40860;51.710;8.736;2023-02-28T22:54:15;0.00;90.80
54960;DHT22;40860;51.710;8.736;2023-02-28T22:58:18;0.00;91.00
54960;DHT22;40860;51.710;8.736;2023-02-28T23:02:21;0.00;91.00
54960;DHT22;40860;51.710;8.736;2023-02-28T23:06:26;0.00;91.20
54960;DHT22;40860;51.710;8.736;2023-02-28T23:10:31;0.00;90.90
54960;DHT22;40860;51.710;8.736;2023-02-28T23:14:37;-0.10;90.80
54960;DHT22;40860;51.710;8.736;2023-02-28T23:18:46;-0.10;91.00
54960;DHT22;40860;51.710;8.736;2023-02-28T23:22:49;-0.20;91.10
54960;DHT22;40860;51.710;8.736;2023-02-28T23:26:56;-0.30;91.20
54960;DHT22;40860;51.710;8.736;2023-02-28T23:30:59;-0.40;91.50
54960;DHT22;40860;51.710;8.736;2023-02-28T23:35:06;-0.50;91.70
54960;DHT22;40860;51.710;8.736;2023-02-28T23:39:12;-0.60;92.00
54960;DHT22;40860;51.710;8.736;2023-02-28T23:43:18;-0.70;92.10
54960;DHT22;40860;51.710;8.736;2023-02-28T23:47:21;-0.70;92.50
54960;DHT22;40860;51.710;8.736;2023-02-28T23:51:24;-0.80;92.60
54960;DHT22;40860;51.710;8.736;2023-02-28T23:55:27;-0.80;92.70
54960;DHT22;40860;51.710;8.736;2023-02-28T23:59:31;-0.90;92.80
